createdAt,value
2022-12-31T00:02:45.362Z,10.10
2022-12-31T00:06:52.328Z,10.80
2022-12-31T00:10:59.019Z,10.40
2022-12-31T00:15:06.463Z,11.00
2022-12-31T00:19:13.788Z,9.60
2022-12-31T00:23:20.522Z,10.50
2022-12-31T00:27:27.258Z,11.80
2022-12-31T00:31:37.255Z,12.40
2022-12-31T00:35:43.984Z,12.30
2022-12-31T00:39:50.660Z,11.40
2022-12-31T00:43:57.669Z,10.40
2022-12-31T00:48:04.445Z,11.10
2022-12-31T00:52:13.795Z,8.80
2022-12-31T00:56:22.737Z,10.90
2022-12-31T01:00:29.457Z,11.30
2022-12-31T01:04:36.299Z,12.50
2022-12-31T01:08:43.155Z,11.00
2022-12-31T01:12:49.852Z,9.40
2022-12-31T01:16:56.788Z,10.00
2022-12-31T01:21:05.699Z,9.50
2022-12-31T01:25:12.656Z,10.20
2022-12-31T01:29:19.616Z,13.70
2022-12-31T01:33:26.369Z,11.70
2022-12-31T01:37:33.111Z,10.20
2022-12-31T01:41:41.864Z,9.60
2022-12-31T01:45:52.065Z,9.40
2022-12-31T01:50:04.234Z,7.70
2022-12-31T01:54:14.092Z,7.80
2022-12-31T01:58:24.256Z,8.80
2022-12-31T02:02:31.179Z,8.50
2022-12-31T02:06:42.673Z,9.00
2022-12-31T02:10:49.324Z,8.40
2022-12-31T02:14:57.510Z,7.60
2022-12-31T02:19:19.734Z,7.10
2022-12-31T02:23:48.391Z,7.40
2022-12-31T02:28:04.254Z,6.70
2022-12-31T02:32:18.010Z,7.70
2022-12-31T02:36:28.962Z,7.70
2022-12-31T02:40:36.794Z,7.90
2022-12-31T02:44:44.429Z,7.80
2022-12-31T02:48:57.561Z,6.80
2022-12-31T02:53:19.655Z,6.30
2022-12-31T02:57:32.313Z,6.50
2022-12-31T03:02:01.979Z,7.00
2022-12-31T03:06:11.759Z,6.30
2022-12-31T03:10:18.640Z,8.10
2022-12-31T03:14:25.380Z,8.60
2022-12-31T03:18:57.991Z,7.40
2022-12-31T03:23:14.005Z,7.00
2022-12-31T03:27:21.019Z,6.60
2022-12-31T03:31:27.687Z,6.30
2022-12-31T03:35:36.268Z,6.60
2022-12-31T03:39:43.002Z,6.40
2022-12-31T03:43:49.685Z,7.00
2022-12-31T03:47:56.414Z,8.30
2022-12-31T03:52:03.708Z,6.70
2022-12-31T03:56:10.582Z,6.90
2022-12-31T04:00:21.139Z,6.80
2022-12-31T04:04:27.939Z,6.60
2022-12-31T04:08:34.637Z,6.30
2022-12-31T04:12:41.789Z,6.90
2022-12-31T04:16:48.793Z,5.30
2022-12-31T04:20:55.526Z,6.90
2022-12-31T04:25:02.284Z,6.50
2022-12-31T04:29:09.354Z,6.20
2022-12-31T04:33:16.034Z,6.00
2022-12-31T04:37:22.712Z,6.20
2022-12-31T04:41:29.383Z,6.00
2022-12-31T04:45:36.082Z,6.70
2022-12-31T04:49:42.838Z,6.30
2022-12-31T04:53:50.057Z,6.50
2022-12-31T04:57:56.796Z,6.70
2022-12-31T05:02:03.646Z,6.50
2022-12-31T05:06:12.886Z,6.10
2022-12-31T05:10:19.786Z,6.10
2022-12-31T05:14:26.468Z,6.20
2022-12-31T05:18:33.565Z,6.40
2022-12-31T05:22:40.258Z,6.30
2022-12-31T05:26:46.985Z,6.20
2022-12-31T05:30:54.204Z,6.70
2022-12-31T05:35:01.529Z,6.90
2022-12-31T05:39:08.355Z,6.00
2022-12-31T05:43:15.039Z,6.80
2022-12-31T05:47:21.739Z,6.00
2022-12-31T05:51:28.480Z,6.70
2022-12-31T05:55:35.176Z,6.30
2022-12-31T05:59:42.136Z,7.00
2022-12-31T06:03:48.841Z,7.60
2022-12-31T06:07:55.595Z,7.20
2022-12-31T06:12:02.265Z,6.60
2022-12-31T06:16:11.956Z,6.10
2022-12-31T06:20:19.047Z,6.40
2022-12-31T06:24:25.798Z,6.90
2022-12-31T06:28:32.498Z,6.40
2022-12-31T06:32:39.448Z,6.30
2022-12-31T06:36:46.150Z,7.00
2022-12-31T06:40:52.841Z,6.90
2022-12-31T06:44:59.560Z,5.70
2022-12-31T06:49:06.218Z,6.00
2022-12-31T06:53:12.919Z,5.70
2022-12-31T06:57:20.471Z,6.00
2022-12-31T07:01:54.068Z,5.90
2022-12-31T07:06:10.223Z,5.90
2022-12-31T07:10:29.917Z,6.30
2022-12-31T07:14:42.976Z,5.50
2022-12-31T07:18:57.523Z,5.20
2022-12-31T07:23:05.013Z,5.60
2022-12-31T07:27:29.708Z,5.90
2022-12-31T07:31:51.474Z,4.50
2022-12-31T07:36:10.263Z,6.00
2022-12-31T07:40:23.969Z,5.70
2022-12-31T07:44:42.149Z,5.40
2022-12-31T07:48:49.558Z,5.70
2022-12-31T07:52:57.635Z,5.70
2022-12-31T07:57:04.470Z,5.50
2022-12-31T08:01:14.404Z,5.80
2022-12-31T08:05:28.913Z,5.50
2022-12-31T08:09:46.216Z,5.50
2022-12-31T08:13:56.198Z,6.10
2022-12-31T08:18:03.669Z,4.90
2022-12-31T08:22:29.729Z,5.40
2022-12-31T08:26:48.140Z,5.00
2022-12-31T08:31:05.503Z,4.60
2022-12-31T08:35:25.169Z,4.60
2022-12-31T08:39:44.365Z,4.50
2022-12-31T08:44:00.038Z,4.30
2022-12-31T08:48:15.333Z,4.90
2022-12-31T08:52:25.303Z,5.00
2022-12-31T08:56:37.263Z,4.70
2022-12-31T09:00:44.536Z,4.50
2022-12-31T09:05:01.195Z,4.50
2022-12-31T09:09:21.763Z,4.50
2022-12-31T09:13:38.953Z,5.10
2022-12-31T09:17:50.396Z,4.60
2022-12-31T09:26:17.599Z,4.60
2022-12-31T09:30:24.923Z,4.00
2022-12-31T09:34:38.415Z,4.10
2022-12-31T09:38:53.645Z,3.80
2022-12-31T09:43:58.972Z,3.30
2022-12-31T09:48:27.186Z,4.10
2022-12-31T09:52:44.861Z,4.10
2022-12-31T09:57:07.889Z,3.20
2022-12-31T10:01:42.582Z,3.40
2022-12-31T10:06:20.444Z,3.40
2022-12-31T10:10:35.380Z,4.00
2022-12-31T10:14:56.767Z,3.90
2022-12-31T10:19:29.312Z,3.70
2022-12-31T10:24:01.252Z,3.80
2022-12-31T10:28:29.086Z,3.80
2022-12-31T10:32:43.780Z,3.40
2022-12-31T10:37:04.200Z,3.60
2022-12-31T10:41:52.842Z,3.90
2022-12-31T10:46:37.995Z,2.70
2022-12-31T10:51:27.965Z,3.50
2022-12-31T10:55:57.605Z,3.10
2022-12-31T11:00:14.967Z,3.30
2022-12-31T11:04:49.444Z,3.90
2022-12-31T11:09:31.267Z,3.70
2022-12-31T11:14:08.334Z,3.30
2022-12-31T11:18:23.530Z,3.40
2022-12-31T11:22:43.101Z,3.10
2022-12-31T11:27:08.110Z,3.70
2022-12-31T11:31:33.851Z,3.40
2022-12-31T11:35:57.742Z,3.10
2022-12-31T11:40:22.277Z,3.60
2022-12-31T11:44:46.323Z,3.20
2022-12-31T11:49:06.683Z,2.70
2022-12-31T11:53:46.446Z,3.60
2022-12-31T11:57:54.287Z,3.40
2022-12-31T12:02:13.188Z,3.10
2022-12-31T12:06:24.757Z,3.20
2022-12-31T12:10:36.596Z,3.30
2022-12-31T12:14:45.126Z,3.10
2022-12-31T12:19:03.283Z,3.40
2022-12-31T12:23:24.376Z,2.80
2022-12-31T12:27:33.094Z,3.10
2022-12-31T12:31:40.189Z,3.20
2022-12-31T12:35:47.182Z,3.00
2022-12-31T12:40:01.029Z,3.00
2022-12-31T12:44:15.265Z,2.90
2022-12-31T12:48:31.062Z,3.10
2022-12-31T12:53:09.340Z,2.80
2022-12-31T12:57:22.074Z,3.10
2022-12-31T13:01:42.511Z,2.90
2022-12-31T13:05:59.080Z,2.80
2022-12-31T13:10:24.402Z,2.80
2022-12-31T13:14:38.877Z,3.00
2022-12-31T13:18:56.079Z,3.40
2022-12-31T13:23:14.105Z,2.80
2022-12-31T13:27:28.470Z,2.80
2022-12-31T13:31:38.740Z,2.90
2022-12-31T13:35:49.099Z,2.70
2022-12-31T13:40:02.502Z,2.50
2022-12-31T13:44:26.158Z,2.40
2022-12-31T13:52:47.678Z,2.60
2022-12-31T13:56:56.254Z,3.00
2022-12-31T14:01:10.569Z,2.90
2022-12-31T14:05:25.764Z,3.00
2022-12-31T14:09:35.032Z,3.20
2022-12-31T14:13:56.842Z,3.10
2022-12-31T14:18:10.931Z,3.40
2022-12-31T14:22:25.554Z,3.30
2022-12-31T14:26:35.238Z,3.30
2022-12-31T14:30:44.386Z,2.50
2022-12-31T14:34:59.677Z,2.90
2022-12-31T14:39:27.226Z,3.00
2022-12-31T14:43:45.198Z,2.90
2022-12-31T14:47:57.001Z,3.00
2022-12-31T14:52:20.683Z,2.50
2022-12-31T15:00:52.458Z,2.90
2022-12-31T15:05:17.238Z,2.80
2022-12-31T15:09:52.305Z,3.40
2022-12-31T15:14:22.345Z,3.20
2022-12-31T15:18:39.927Z,5.50
2022-12-31T15:22:48.895Z,4.30
2022-12-31T15:26:57.751Z,3.30
2022-12-31T15:31:20.035Z,2.70
2022-12-31T15:35:33.121Z,3.40
2022-12-31T15:39:44.776Z,3.10
2022-12-31T15:43:57.238Z,3.20
2022-12-31T15:48:10.058Z,4.00
2022-12-31T15:52:21.626Z,3.30
2022-12-31T15:56:36.095Z,4.20
2022-12-31T16:00:58.541Z,2.70
2022-12-31T16:05:05.811Z,3.10
2022-12-31T16:09:23.522Z,4.20
2022-12-31T16:13:31.723Z,3.20
2022-12-31T16:17:39.831Z,3.50
2022-12-31T16:21:49.585Z,3.60
2022-12-31T16:26:00.946Z,3.20
2022-12-31T16:30:20.270Z,3.20
2022-12-31T16:34:28.398Z,3.40
2022-12-31T16:38:36.812Z,2.90
2022-12-31T16:42:44.600Z,3.30
2022-12-31T16:46:52.525Z,2.80
2022-12-31T16:50:59.622Z,2.90
2022-12-31T16:55:10.892Z,2.90
2022-12-31T16:59:24.432Z,4.30
2022-12-31T17:03:31.846Z,3.60
2022-12-31T17:07:43.563Z,3.60
2022-12-31T17:11:54.128Z,3.90
2022-12-31T17:16:02.365Z,3.10
2022-12-31T17:20:22.333Z,3.50
2022-12-31T17:24:29.325Z,3.40
2022-12-31T17:28:45.075Z,3.00
2022-12-31T17:32:53.200Z,3.50
2022-12-31T17:37:18.430Z,3.80
2022-12-31T17:41:28.104Z,3.30
2022-12-31T17:45:39.354Z,3.20
2022-12-31T17:53:53.451Z,3.90
2022-12-31T17:58:03.825Z,3.70
2022-12-31T18:02:14.298Z,3.90
2022-12-31T18:06:21.064Z,3.60
2022-12-31T18:10:29.567Z,3.80
2022-12-31T18:14:36.457Z,3.60
2022-12-31T18:18:45.411Z,3.30
2022-12-31T18:22:52.817Z,3.70
2022-12-31T18:26:59.494Z,4.10
2022-12-31T18:31:06.334Z,3.60
2022-12-31T18:35:40.683Z,3.90
2022-12-31T18:39:45.171Z,3.00
2022-12-31T18:43:52.125Z,3.20
2022-12-31T18:47:58.816Z,2.90
2022-12-31T18:52:05.606Z,3.30
2022-12-31T18:56:15.297Z,3.10
2022-12-31T19:00:22.226Z,3.40
2022-12-31T19:04:28.919Z,3.10
2022-12-31T19:08:35.903Z,2.70
2022-12-31T19:12:42.659Z,3.60
2022-12-31T19:16:50.667Z,3.10
2022-12-31T19:20:57.395Z,3.40
2022-12-31T19:25:04.185Z,3.00
2022-12-31T19:29:15.932Z,3.20
2022-12-31T19:33:22.795Z,2.80
2022-12-31T19:37:29.546Z,3.20
2022-12-31T19:41:36.356Z,3.60
2022-12-31T19:45:43.847Z,2.90
2022-12-31T19:49:51.030Z,3.00
2022-12-31T19:53:57.845Z,3.30
2022-12-31T19:58:04.524Z,3.10
2022-12-31T20:02:12.416Z,3.30
2022-12-31T20:06:20.195Z,3.70
2022-12-31T20:10:26.924Z,3.80
2022-12-31T20:14:33.722Z,3.50
2022-12-31T20:18:41.712Z,3.20
2022-12-31T20:22:48.397Z,3.10
2022-12-31T20:26:55.160Z,3.00
2022-12-31T20:31:05.204Z,3.30
2022-12-31T20:35:11.944Z,4.30
2022-12-31T20:39:18.711Z,4.00
2022-12-31T20:43:25.408Z,3.80
2022-12-31T20:47:32.088Z,3.00
2022-12-31T20:51:38.938Z,3.30
2022-12-31T20:55:45.612Z,3.40
2022-12-31T20:59:52.324Z,3.50
2022-12-31T21:04:07.344Z,3.60
2022-12-31T21:08:14.194Z,4.00
2022-12-31T21:12:38.518Z,3.10
2022-12-31T21:16:45.344Z,3.10
2022-12-31T21:20:53.690Z,3.50
2022-12-31T21:25:01.061Z,3.60
2022-12-31T21:29:07.762Z,3.60
2022-12-31T21:33:14.505Z,3.60
2022-12-31T21:37:21.135Z,3.10
2022-12-31T21:41:45.316Z,3.30
2022-12-31T21:46:02.613Z,3.30
2022-12-31T21:50:11.145Z,4.00
2022-12-31T21:54:37.880Z,3.90
2022-12-31T21:58:46.044Z,3.70
2022-12-31T22:03:10.498Z,3.80
2022-12-31T22:07:17.243Z,3.60
2022-12-31T22:11:25.658Z,4.40
2022-12-31T22:15:32.415Z,4.00
2022-12-31T22:19:48.723Z,3.60
2022-12-31T22:24:06.591Z,3.30
2022-12-31T22:28:37.574Z,3.30
2022-12-31T22:32:39.918Z,3.20
2022-12-31T22:36:46.609Z,3.00
2022-12-31T22:40:53.333Z,4.20
2022-12-31T22:45:00.000Z,3.20
2022-12-31T22:49:06.936Z,3.90
2022-12-31T22:53:13.573Z,3.50
2022-12-31T22:57:20.566Z,3.50
2022-12-31T23:01:27.682Z,22.10
2022-12-31T23:05:35.004Z,7.40
2022-12-31T23:09:59.177Z,17.50
2022-12-31T23:14:25.052Z,13.80
2022-12-31T23:18:49.235Z,12.00
2022-12-31T23:23:09.683Z,9.40
2022-12-31T23:27:16.427Z,7.90
2022-12-31T23:31:25.837Z,7.50
2022-12-31T23:35:32.638Z,7.40
2022-12-31T23:39:39.319Z,6.20
2022-12-31T23:43:46.517Z,5.70
2022-12-31T23:47:53.203Z,4.60
2022-12-31T23:51:59.896Z,5.00
2022-12-31T23:56:15.005Z,5.00
